Hauptseite
Satellitenwetter 15-Tage PrognosenKlimaSeewetter Wirbelstürme Blitz FlughäfenFAQ Newsletter Über uns
Wetter : Europa Afrika Nordamerika Südamerika Asien Australien-Ozeanien Andere
Sprachen Kontakt

Newquay Cornwall, England

Breite: 50-26N, Länge: 005-00W, Höhe: 119 m


METAR: EGHQ 241950Z 14007KT CAVOK 08/07 Q1016
short-TAF: EGHQ 241703Z 2418/2421 13007KT 9999 FEW025
long-TAF: fehlend

Zeit: 06:07 (05:07 UTC)

Beobachtung

Neuester Wetterbericht von vor 9 Stunden und 17 Minuten, um 19:50 UTC  
Wind 07 kt aus Südost
Temperatur 8°C
Luftfeuchtigkeit 93%
Luftdruck 1016 hPa
Sichtweite 10 km oder mehr
keine Wolken unter 1500 m und keine Kumulonimbus oder Gewitterwolken

Maßeinheiten ändern

Prognose

Neuester Wetterbericht von vor 11 Stunden und 52 Minuten, um 17:15 UTC  
Gültige Prognose vom 24 um 18 UTC bis 24 um 21 UTC
Wind 07 kt aus Südost
Sichtweite 10 km oder mehr
leicht bewölkt in der Höhe von 2500 ft
Die Angaben auf diesen Webseiten unterliegen einer Erklärung über den Haftungsausschluss
Wetter : Europa Afrika Nordamerika Südamerika Asien Australien-Ozeanien Andere
Satellitenwetter 15-Tage PrognosenKlimaSeewetter Wirbelstürme Blitz FlughäfenFAQ Sprachen Kontakt Newsletter Über uns